NCAR-RAP Real-Time Weather Data

Output produced by METARs form (20 February 2019  17:18 UTC)
found at http://weather.rap.ucar.edu/surface/
 
RJCW 200900Z 10011KT 9999 FEW015 M06/M08 Q1016
RJCW 200800Z 10009KT 9999 FEW015 M05/M08 Q1016
RJCW 200700Z 09009KT 9999 FEW020 M03/M07 Q1016
RJCW 200600Z 08011KT 9999 FEW025 M02/M06 Q1015
RJCW 200500Z 08011KT 9999 FEW040 M01/M07 Q1015
RJCW 200400Z 08013KT 9999 FEW040 M01/M07 Q1015
RJCW 200300Z 05012KT 9999 FEW040 SCT/// M01/M06 Q1016
RJCW 200200Z 05012KT 9999 FEW040 BKN/// M01/M06 Q1016
RJCW 200100Z 06013KT 9999 FEW040 BKN/// M01/M07 Q1016
RJCW 200000Z 05013KT 9999 FEW040 SCT/// M02/M06 Q1016
RJCW 192330Z 06011KT 9999 FEW040 BKN/// M02/M06 Q1016
RJCW 190900Z 23007KT 9999 FEW015 BKN/// 00/M02 Q1016
RJCW 190800Z 24011KT 9999 FEW015 SCT170 BKN/// 01/M01 Q1015
RJCW 190700Z 23015KT 9999 FEW015 SCT170 BKN/// 02/M01 Q1015
RJCW 190600Z 23013KT 9999 FEW015 BKN/// 03/M00 Q1015
RJCW 190500Z 22017KT 9999 FEW015 BKN/// 03/M01 Q1015
RJCW 190400Z 22019KT 9999 FEW020 BKN/// 03/M01 Q1016
RJCW 190300Z 23021KT 9999 FEW020 BKN/// 03/M01 Q1017
RJCW 190200Z 23022KT 9999 FEW020 BKN/// 03/M02 Q1018
RJCW 190100Z 23023KT 9999 FEW020 BKN/// 03/M02 Q1018
RJCW 190000Z 22018KT 9999 FEW030 BKN/// 02/M02 Q1018
RJCW 182330Z 23019KT 9999 FEW020 SCT/// 02/M02 Q1018
RJCW 180900Z 23012KT 9999 FEW030 M02/M09 Q1017
RJCW 180800Z 24017KT 9999 FEW030 M02/M09 Q1017
RJCW 180700Z 25013KT 9999 FEW030 BKN040 M01/M09 Q1016
RJCW 180600Z 26014KT 9999 FEW030 SCT040 M01/M10 Q1016